createdAt,value
2019-05-22T00:00:47.621Z,50.40
2019-05-22T00:03:21.307Z,46.65
2019-05-22T00:05:56.800Z,45.23
2019-05-22T00:08:25.558Z,46.28
2019-05-22T00:10:59.697Z,42.33
2019-05-22T00:13:38.445Z,45.83
2019-05-22T00:16:40.393Z,46.42
2019-05-22T00:19:15.477Z,43.20
2019-05-22T00:21:57.532Z,44.05
2019-05-22T00:24:27.586Z,42.73
2019-05-22T00:27:04.472Z,46.77
2019-05-22T00:29:34.050Z,45.15
2019-05-22T00:32:07.452Z,45.08
2019-05-22T00:34:52.756Z,45.38
2019-05-22T00:37:23.383Z,49.48
2019-05-22T00:40:08.427Z,47.93
2019-05-22T00:42:41.247Z,48.35
2019-05-22T00:45:13.091Z,55.28
2019-05-22T00:47:44.726Z,46.83
2019-05-22T00:53:06.144Z,47.40
2019-05-22T00:56:04.084Z,48.55
2019-05-22T00:58:47.461Z,49.10
2019-05-22T01:01:23.575Z,47.67
2019-05-22T01:03:53.849Z,49.58
2019-05-22T01:06:58.343Z,49.85
2019-05-22T01:09:39.770Z,54.55
2019-05-22T01:12:16.250Z,55.08
2019-05-22T01:14:51.063Z,51.42
2019-05-22T01:18:09.998Z,49.88
2019-05-22T01:20:46.093Z,52.15
2019-05-22T01:23:32.991Z,48.87
2019-05-22T01:26:05.712Z,51.23
2019-05-22T01:28:37.278Z,51.25
2019-05-22T01:33:50.484Z,53.92
2019-05-22T01:36:22.166Z,55.55
2019-05-22T01:39:35.065Z,54.48
2019-05-22T01:42:06.943Z,57.88
2019-05-22T01:44:39.310Z,57.25
2019-05-22T01:47:17.832Z,55.83
2019-05-22T01:49:59.986Z,59.98
2019-05-22T01:52:31.264Z,57.80
2019-05-22T01:55:01.891Z,57.73
2019-05-22T01:57:31.277Z,60.98
2019-05-22T02:00:13.540Z,57.30
2019-05-22T02:03:31.198Z,59.40
2019-05-22T02:06:51.251Z,59.05
2019-05-22T02:09:28.768Z,54.98
2019-05-22T02:12:05.176Z,57.73
2019-05-22T02:14:44.578Z,58.42
2019-05-22T02:20:53.344Z,55.43
2019-05-22T02:24:05.086Z,54.73
2019-05-22T02:26:37.040Z,54.30
2019-05-22T02:29:10.888Z,53.10
2019-05-22T02:31:45.178Z,53.08
2019-05-22T02:34:17.181Z,56.77
2019-05-22T02:36:54.196Z,55.73
2019-05-22T02:39:30.696Z,53.78
2019-05-22T02:42:06.613Z,52.30
2019-05-22T02:45:22.567Z,45.85
2019-05-22T02:51:20.730Z,51.25
2019-05-22T02:53:52.027Z,47.55
2019-05-22T02:56:41.875Z,46.63
2019-05-22T03:00:01.964Z,56.13
2019-05-22T03:03:16.190Z,44.03
2019-05-22T03:05:50.939Z,47.75
2019-05-22T03:08:22.799Z,45.88
2019-05-22T03:10:55.463Z,45.28
2019-05-22T03:13:57.558Z,48.73
2019-05-22T03:16:32.893Z,41.05
2019-05-22T03:19:26.364Z,46.58
2019-05-22T03:21:57.391Z,47.90
2019-05-22T03:24:33.685Z,50.17
2019-05-22T03:27:05.203Z,44.63
2019-05-22T03:30:16.383Z,45.78
2019-05-22T03:32:48.442Z,43.40
2019-05-22T03:35:21.882Z,45.63
2019-05-22T03:37:51.840Z,41.73
2019-05-22T03:40:37.819Z,41.05
2019-05-22T03:43:15.248Z,46.95
2019-05-22T03:45:48.092Z,42.65
2019-05-22T03:48:23.749Z,46.37
2019-05-22T03:51:43.097Z,45.20
2019-05-22T03:54:15.156Z,47.25
2019-05-22T03:56:50.162Z,48.75
2019-05-22T03:59:34.572Z,44.35
2019-05-22T04:02:09.104Z,47.10
2019-05-22T04:04:41.213Z,45.35
2019-05-22T04:07:17.843Z,44.18
2019-05-22T04:09:48.748Z,42.30
2019-05-22T04:12:18.567Z,42.00
2019-05-22T04:14:55.855Z,40.50
2019-05-22T04:17:28.910Z,44.38
2019-05-22T04:20:10.886Z,42.98
2019-05-22T04:22:43.310Z,42.15
2019-05-22T04:25:21.831Z,43.87
2019-05-22T04:27:51.216Z,44.23
2019-05-22T04:30:20.492Z,43.33
2019-05-22T04:32:49.706Z,41.10
2019-05-22T04:35:24.601Z,43.02
2019-05-22T04:38:04.161Z,37.63
2019-05-22T04:41:19.301Z,39.10
2019-05-22T04:43:55.372Z,40.65
2019-05-22T04:46:27.283Z,37.35
2019-05-22T04:48:56.206Z,36.53
2019-05-22T04:51:26.563Z,39.42
2019-05-22T04:53:59.889Z,39.00
2019-05-22T04:56:38.461Z,36.03
2019-05-22T04:59:11.797Z,38.23
2019-05-22T05:01:48.438Z,37.50
2019-05-22T05:04:19.809Z,35.03
2019-05-22T05:06:56.717Z,34.95
2019-05-22T05:09:25.591Z,34.90
2019-05-22T05:11:56.981Z,34.92
2019-05-22T05:14:28.840Z,30.70
2019-05-22T05:17:10.032Z,29.37
2019-05-22T05:19:38.636Z,27.87
2019-05-22T05:22:19.203Z,27.13
2019-05-22T05:24:51.300Z,31.27
2019-05-22T05:29:51.001Z,27.87
2019-05-22T05:32:20.390Z,29.20
2019-05-22T05:34:55.251Z,30.37
2019-05-22T05:37:32.630Z,26.97
2019-05-22T05:40:10.116Z,26.33
2019-05-22T05:42:40.611Z,27.55
2019-05-22T05:45:15.690Z,25.82
2019-05-22T05:48:44.180Z,30.52
2019-05-22T05:51:18.852Z,31.00
2019-05-22T05:54:03.123Z,27.07
2019-05-22T05:57:10.315Z,28.40
2019-05-22T05:59:42.455Z,26.35
2019-05-22T06:02:23.725Z,26.20
2019-05-22T06:04:58.215Z,27.98
2019-05-22T06:07:29.250Z,26.85
2019-05-22T06:10:29.568Z,28.55
2019-05-22T06:13:05.300Z,24.67
2019-05-22T06:15:47.220Z,26.20
2019-05-22T06:18:31.916Z,27.75
2019-05-22T06:21:04.301Z,26.20
2019-05-22T06:23:40.879Z,28.57
2019-05-22T06:26:20.727Z,26.42
2019-05-22T06:28:55.233Z,24.47
2019-05-22T06:32:20.122Z,22.98
2019-05-22T06:34:48.799Z,23.77
2019-05-22T06:37:42.146Z,25.92
2019-05-22T06:40:21.239Z,21.30
2019-05-22T06:43:24.806Z,25.12
2019-05-22T06:45:59.598Z,20.27
2019-05-22T06:48:31.806Z,21.17
2019-05-22T06:51:18.557Z,20.97
2019-05-22T06:53:42.210Z,20.92
2019-05-22T06:56:32.116Z,23.87
2019-05-22T06:59:42.977Z,22.48
2019-05-22T07:02:13.959Z,21.10
2019-05-22T07:07:23.945Z,23.05
2019-05-22T07:09:59.451Z,20.72
2019-05-22T07:12:34.952Z,22.37
2019-05-22T07:15:11.026Z,22.98
2019-05-22T07:17:46.893Z,22.85
2019-05-22T07:20:18.313Z,23.92
2019-05-22T07:22:53.363Z,21.90
2019-05-22T07:25:22.879Z,20.17
2019-05-22T07:27:51.517Z,19.00
2019-05-22T07:30:23.603Z,18.77
2019-05-22T07:32:55.491Z,20.02
2019-05-22T07:36:04.763Z,19.12
2019-05-22T07:38:38.258Z,18.35
2019-05-22T07:41:08.471Z,22.37
2019-05-22T07:43:43.879Z,20.90
2019-05-22T07:46:14.505Z,20.55
2019-05-22T07:49:16.575Z,18.92
2019-05-22T07:52:09.651Z,19.77
2019-05-22T07:54:40.653Z,22.58
2019-05-22T08:00:12.860Z,20.75
2019-05-22T08:02:44.535Z,20.35
2019-05-22T08:05:17.684Z,19.80
2019-05-22T08:07:55.828Z,21.87
2019-05-22T08:10:28.243Z,21.02
2019-05-22T08:13:00.999Z,20.88
2019-05-22T08:16:02.742Z,21.23
2019-05-22T08:18:58.608Z,19.32
2019-05-22T08:21:34.604Z,21.73
2019-05-22T08:24:07.312Z,17.98
2019-05-22T08:26:53.957Z,20.25
2019-05-22T08:29:18.128Z,19.00
2019-05-22T08:31:48.402Z,18.85
2019-05-22T08:34:36.683Z,20.65
2019-05-22T08:37:39.736Z,20.62
2019-05-22T08:40:31.984Z,18.80
2019-05-22T08:43:03.625Z,17.02
2019-05-22T08:45:42.902Z,21.65
2019-05-22T08:48:18.709Z,17.15
2019-05-22T08:50:55.319Z,19.35
2019-05-22T08:53:25.024Z,19.02
2019-05-22T08:56:02.582Z,18.62
2019-05-22T08:58:36.794Z,22.00
2019-05-22T09:01:15.792Z,19.70
2019-05-22T09:03:50.306Z,15.78
2019-05-22T09:06:24.506Z,17.32
2019-05-22T09:08:55.896Z,18.48
2019-05-22T09:11:28.282Z,18.05
2019-05-22T09:14:09.034Z,16.73
2019-05-22T09:16:43.976Z,19.45
2019-05-22T09:19:16.935Z,20.72
2019-05-22T09:21:54.660Z,19.05
2019-05-22T09:24:30.631Z,20.43
2019-05-22T09:27:02.882Z,22.50
2019-05-22T09:29:34.106Z,18.67
2019-05-22T09:32:14.702Z,17.02
2019-05-22T09:34:46.364Z,16.73
2019-05-22T09:37:18.169Z,19.70
2019-05-22T09:40:38.729Z,20.05
2019-05-22T09:43:07.380Z,20.83
2019-05-22T09:45:39.034Z,21.42
2019-05-22T09:48:11.043Z,20.72
2019-05-22T09:50:50.620Z,20.68
2019-05-22T09:53:22.979Z,18.60
2019-05-22T09:56:02.784Z,18.90
2019-05-22T09:58:34.996Z,17.55
2019-05-22T10:01:10.945Z,16.60
2019-05-22T10:03:43.316Z,17.23
2019-05-22T10:06:12.693Z,18.60
2019-05-22T10:08:45.035Z,21.02
2019-05-22T10:11:21.618Z,17.87
2019-05-22T10:13:59.507Z,20.02
2019-05-22T10:16:34.213Z,19.15
2019-05-22T10:19:22.627Z,17.20
2019-05-22T10:21:51.462Z,21.62
2019-05-22T10:24:41.359Z,20.10
2019-05-22T10:27:16.885Z,16.00
2019-05-22T10:29:52.250Z,24.27
2019-05-22T10:32:48.988Z,16.93
2019-05-22T10:35:23.131Z,19.45
2019-05-22T10:37:55.121Z,18.70
2019-05-22T10:41:23.120Z,24.70
2019-05-22T10:43:58.544Z,25.27
2019-05-22T10:46:33.254Z,21.90
2019-05-22T10:49:07.856Z,22.52
2019-05-22T10:51:39.107Z,27.17
2019-05-22T10:54:10.919Z,25.30
2019-05-22T10:56:42.135Z,28.07
2019-05-22T10:59:15.964Z,31.97
2019-05-22T11:01:52.839Z,26.85
2019-05-22T11:04:27.477Z,33.20
2019-05-22T11:06:57.092Z,30.23
2019-05-22T11:12:52.100Z,29.12
2019-05-22T11:15:27.712Z,25.80
2019-05-22T11:18:02.869Z,27.30
2019-05-22T11:20:33.196Z,25.92
2019-05-22T11:23:04.273Z,22.42
2019-05-22T11:25:40.853Z,24.10
2019-05-22T11:28:13.897Z,22.65
2019-05-22T11:30:43.611Z,23.38
2019-05-22T11:33:18.059Z,20.50
2019-05-22T11:35:49.254Z,18.80
2019-05-22T11:38:20.956Z,21.97
2019-05-22T11:40:52.816Z,22.50
2019-05-22T11:43:24.832Z,18.20
2019-05-22T11:46:06.372Z,17.40
2019-05-22T11:48:41.236Z,19.17
2019-05-22T11:51:16.030Z,14.18
2019-05-22T11:54:07.449Z,14.10
2019-05-22T11:56:23.724Z,16.23
2019-05-22T11:58:59.173Z,16.55
2019-05-22T12:02:09.251Z,17.77
2019-05-22T12:04:48.281Z,13.20
2019-05-22T12:07:17.087Z,14.73
2019-05-22T12:09:48.752Z,14.28
2019-05-22T12:12:26.428Z,15.55
2019-05-22T12:15:02.101Z,14.30
2019-05-22T12:17:39.389Z,14.13
2019-05-22T12:20:11.410Z,15.35
2019-05-22T12:22:41.623Z,14.65
2019-05-22T12:25:24.009Z,13.98
2019-05-22T12:27:53.152Z,11.78
2019-05-22T12:30:26.512Z,15.83
2019-05-22T12:33:01.542Z,14.83
2019-05-22T12:35:42.307Z,12.20
2019-05-22T12:38:12.893Z,12.50
2019-05-22T12:40:47.399Z,10.68
2019-05-22T12:43:16.977Z,16.52
2019-05-22T12:45:45.922Z,11.75
2019-05-22T12:48:21.095Z,14.60
2019-05-22T12:50:59.616Z,14.95
2019-05-22T12:53:30.214Z,14.50
2019-05-22T12:56:02.055Z,12.80
2019-05-22T12:58:35.115Z,14.53
2019-05-22T13:01:06.320Z,13.58
2019-05-22T13:03:41.346Z,12.82
2019-05-22T13:06:16.830Z,12.63
2019-05-22T13:09:17.473Z,12.78
2019-05-22T13:11:52.444Z,11.68
2019-05-22T13:14:27.912Z,10.25
2019-05-22T13:17:01.052Z,13.60
2019-05-22T13:19:37.568Z,12.95
2019-05-22T13:22:12.762Z,11.90
2019-05-22T13:24:44.024Z,13.65
2019-05-22T13:27:22.150Z,14.90
2019-05-22T13:29:52.714Z,13.85
2019-05-22T13:32:35.558Z,12.93
2019-05-22T13:35:08.025Z,13.28
2019-05-22T13:37:56.776Z,14.55
2019-05-22T13:40:33.494Z,15.65
2019-05-22T13:43:28.731Z,13.22
2019-05-22T13:46:30.302Z,15.70
2019-05-22T13:49:07.101Z,16.62
2019-05-22T13:51:35.973Z,17.07
2019-05-22T13:54:14.929Z,15.98
2019-05-22T13:56:46.468Z,16.35
2019-05-22T13:59:24.631Z,19.30
2019-05-22T14:01:59.313Z,18.50
2019-05-22T14:05:14.041Z,18.92
2019-05-22T14:07:49.826Z,16.67
2019-05-22T14:10:24.405Z,17.95
2019-05-22T14:13:30.216Z,17.50
2019-05-22T14:16:19.035Z,17.40
2019-05-22T14:19:00.156Z,13.88
2019-05-22T14:25:48.856Z,13.37
2019-05-22T14:28:22.690Z,13.32
2019-05-22T14:30:52.020Z,12.85
2019-05-22T14:33:28.210Z,10.03
2019-05-22T14:37:07.246Z,7.17
2019-05-22T14:39:37.986Z,10.63
2019-05-22T14:42:08.444Z,8.38
2019-05-22T14:44:50.489Z,8.88
2019-05-22T14:47:22.408Z,5.05
2019-05-22T14:50:08.583Z,4.97
2019-05-22T14:52:42.101Z,4.12
2019-05-22T14:56:10.360Z,4.12
